createdAt,value
2019-05-03T00:02:28.433Z,99.90
2019-05-03T00:05:21.986Z,99.90
2019-05-03T00:07:52.669Z,99.90
2019-05-03T00:10:22.354Z,99.90
2019-05-03T00:12:50.371Z,99.90
2019-05-03T00:15:24.642Z,99.90
2019-05-03T00:17:52.713Z,99.90
2019-05-03T00:20:21.905Z,99.90
2019-05-03T00:22:49.857Z,99.90
2019-05-03T00:25:17.687Z,99.90
2019-05-03T00:27:45.476Z,99.90
2019-05-03T00:30:13.671Z,99.90
2019-05-03T00:32:42.796Z,99.90
2019-05-03T00:35:14.882Z,99.90
2019-05-03T00:37:44.614Z,99.90
2019-05-03T00:40:17.648Z,99.90
2019-05-03T00:42:45.459Z,99.90
2019-05-03T00:45:13.362Z,99.90
2019-05-03T00:47:42.140Z,99.90
2019-05-03T00:50:12.054Z,99.90
2019-05-03T00:52:39.943Z,99.90
2019-05-03T00:55:16.329Z,99.90
2019-05-03T00:57:37.550Z,99.90
2019-05-03T01:00:05.577Z,99.90
2019-05-03T01:02:33.341Z,99.90
2019-05-03T01:05:02.863Z,99.90
2019-05-03T01:07:31.842Z,99.90
2019-05-03T01:09:59.858Z,99.90
2019-05-03T01:12:27.668Z,99.90
2019-05-03T01:14:57.372Z,99.90
2019-05-03T01:17:25.228Z,99.90
2019-05-03T01:19:53.074Z,99.90
2019-05-03T01:22:22.609Z,99.90
2019-05-03T01:24:51.800Z,99.90
2019-05-03T01:27:21.813Z,99.90
2019-05-03T01:29:49.598Z,99.90
2019-05-03T01:32:17.406Z,99.90
2019-05-03T01:34:45.205Z,99.90
2019-05-03T01:37:12.997Z,99.90
2019-05-03T01:39:42.135Z,99.90
2019-05-03T01:42:11.826Z,99.90
2019-05-03T01:44:39.683Z,99.90
2019-05-03T01:47:11.606Z,99.90
2019-05-03T01:49:47.583Z,99.90
2019-05-03T01:52:23.022Z,99.90
2019-05-03T01:54:52.115Z,99.90
2019-05-03T01:57:21.940Z,99.90
2019-05-03T01:59:51.948Z,99.90
2019-05-03T02:02:42.055Z,99.90
2019-05-03T02:05:42.831Z,99.90
2019-05-03T02:08:13.121Z,99.90
2019-05-03T02:10:40.957Z,99.90
2019-05-03T02:13:08.801Z,99.90
2019-05-03T02:15:36.657Z,99.90
2019-05-03T02:18:04.487Z,99.90
2019-05-03T02:20:32.485Z,99.90
2019-05-03T02:23:00.417Z,99.90
2019-05-03T02:25:30.103Z,99.90
2019-05-03T02:28:01.789Z,99.90
2019-05-03T02:30:29.445Z,99.90
2019-05-03T02:32:57.263Z,99.90
2019-05-03T02:35:25.119Z,99.90
2019-05-03T02:37:53.639Z,99.90
2019-05-03T02:40:24.633Z,99.90
2019-05-03T02:43:17.145Z,99.90
2019-05-03T02:45:56.793Z,99.90
2019-05-03T02:48:31.374Z,99.90
2019-05-03T02:50:59.140Z,99.90
2019-05-03T02:53:26.964Z,99.90
2019-05-03T02:55:56.135Z,99.90
2019-05-03T02:58:25.313Z,99.90
2019-05-03T03:00:59.933Z,99.90
2019-05-03T03:03:29.312Z,99.90
2019-05-03T03:05:58.506Z,99.90
2019-05-03T03:08:28.387Z,99.90
2019-05-03T03:11:06.046Z,99.90
2019-05-03T03:13:37.016Z,99.90
2019-05-03T03:16:07.248Z,99.90
2019-05-03T03:18:37.212Z,99.90
2019-05-03T03:21:15.733Z,99.90
2019-05-03T03:24:00.035Z,99.90
2019-05-03T03:26:37.266Z,99.90
2019-05-03T03:29:06.203Z,99.90
2019-05-03T03:32:00.914Z,99.90
2019-05-03T03:34:38.878Z,99.90
2019-05-03T03:37:10.437Z,99.90
2019-05-03T03:39:36.893Z,99.90
2019-05-03T03:42:05.239Z,99.90
2019-05-03T03:44:36.329Z,99.90
2019-05-03T03:47:05.311Z,99.90
2019-05-03T03:49:36.981Z,99.90
2019-05-03T03:52:06.777Z,99.90
2019-05-03T03:54:38.822Z,99.90
2019-05-03T03:57:10.692Z,99.90
2019-05-03T03:59:38.774Z,99.90
2019-05-03T04:02:09.450Z,99.90
2019-05-03T04:04:37.915Z,99.90
2019-05-03T04:07:06.770Z,99.90
2019-05-03T04:09:36.568Z,99.90
2019-05-03T04:12:06.014Z,99.90
2019-05-03T04:14:50.641Z,99.90
2019-05-03T04:17:41.777Z,99.90
2019-05-03T04:20:10.386Z,99.90
2019-05-03T04:22:38.175Z,99.90
2019-05-03T04:25:06.388Z,99.90
2019-05-03T04:27:36.483Z,99.90
2019-05-03T04:30:07.099Z,99.90
2019-05-03T04:32:36.025Z,99.90
2019-05-03T04:35:05.387Z,99.90
2019-05-03T04:37:35.865Z,99.90
2019-05-03T04:40:06.104Z,99.90
2019-05-03T04:42:35.764Z,99.90
2019-05-03T04:45:05.879Z,99.90
2019-05-03T04:47:35.613Z,99.90
2019-05-03T04:50:05.369Z,99.90
2019-05-03T04:52:32.632Z,99.90
2019-05-03T04:55:00.618Z,99.90
2019-05-03T04:57:39.880Z,99.90
2019-05-03T04:59:58.108Z,99.90
2019-05-03T05:02:26.578Z,99.90
2019-05-03T05:04:55.561Z,99.90
2019-05-03T05:07:26.066Z,99.90
2019-05-03T05:09:55.871Z,99.90
2019-05-03T05:12:25.184Z,99.90
2019-05-03T05:14:52.844Z,99.90
2019-05-03T05:17:36.789Z,99.90
2019-05-03T05:20:11.827Z,99.90
2019-05-03T05:22:39.640Z,99.90
2019-05-03T05:25:11.320Z,99.90
2019-05-03T05:28:00.358Z,99.90
2019-05-03T05:30:28.541Z,99.90
2019-05-03T05:32:56.327Z,99.90
2019-05-03T05:35:24.858Z,99.90
2019-05-03T05:37:54.643Z,99.90
2019-05-03T05:40:24.431Z,99.90
2019-05-03T05:42:54.433Z,99.90
2019-05-03T05:45:21.936Z,99.90
2019-05-03T05:47:58.809Z,99.90
2019-05-03T05:50:32.183Z,99.90
2019-05-03T05:53:00.191Z,99.90
2019-05-03T05:55:48.057Z,99.90
2019-05-03T05:58:19.372Z,99.90
2019-05-03T06:01:14.609Z,99.90
2019-05-03T06:03:42.462Z,99.90
2019-05-03T06:06:15.296Z,99.90
2019-05-03T06:08:52.219Z,99.90
2019-05-03T06:11:31.535Z,99.90
2019-05-03T06:14:12.817Z,99.90
2019-05-03T06:16:50.567Z,99.90
2019-05-03T06:19:26.063Z,99.90
2019-05-03T06:21:59.245Z,99.90
2019-05-03T06:24:31.833Z,99.90
2019-05-03T06:27:28.341Z,99.90
2019-05-03T06:29:58.773Z,99.90
2019-05-03T06:32:37.731Z,99.90
2019-05-03T06:35:05.923Z,99.90
2019-05-03T06:37:39.625Z,99.90
2019-05-03T06:40:07.920Z,99.90
2019-05-03T06:42:35.725Z,99.90
2019-05-03T06:45:10.405Z,99.90
2019-05-03T06:47:34.853Z,99.90
2019-05-03T06:50:03.214Z,99.90
2019-05-03T06:52:31.027Z,99.90
2019-05-03T06:55:00.314Z,99.90
2019-05-03T06:57:28.810Z,99.90
2019-05-03T07:00:11.269Z,99.90
2019-05-03T07:02:48.124Z,99.90
2019-05-03T07:05:35.459Z,99.90
2019-05-03T07:08:22.975Z,99.90
2019-05-03T07:10:54.957Z,99.90
2019-05-03T07:13:22.861Z,99.90
2019-05-03T07:15:50.660Z,99.90
2019-05-03T07:18:18.442Z,99.90
2019-05-03T07:20:57.077Z,99.90
2019-05-03T07:23:25.022Z,99.90
2019-05-03T07:25:52.835Z,99.90
2019-05-03T07:28:20.664Z,99.90
2019-05-03T07:30:48.453Z,99.90
2019-05-03T07:33:22.258Z,99.90
2019-05-03T07:35:50.084Z,99.90
2019-05-03T07:38:17.911Z,99.90
2019-05-03T07:40:45.742Z,99.90
2019-05-03T07:43:14.845Z,99.90
2019-05-03T07:45:44.679Z,99.90
2019-05-03T07:48:12.551Z,99.90
2019-05-03T07:50:40.360Z,99.90
2019-05-03T07:53:08.139Z,99.90
2019-05-03T07:56:15.470Z,99.90
2019-05-03T07:58:58.631Z,99.90
2019-05-03T08:01:25.159Z,99.90
2019-05-03T08:03:55.025Z,99.90
2019-05-03T08:06:24.701Z,99.90
2019-05-03T08:08:54.405Z,99.90
2019-05-03T08:11:22.195Z,99.90
2019-05-03T08:13:49.983Z,99.90
2019-05-03T08:16:17.785Z,99.90
2019-05-03T08:18:45.799Z,99.90
2019-05-03T08:21:14.908Z,99.90
2019-05-03T08:23:42.898Z,99.90
2019-05-03T08:26:12.676Z,99.90
2019-05-03T08:28:40.557Z,99.90
2019-05-03T08:31:26.927Z,99.90
2019-05-03T08:34:23.189Z,99.90
2019-05-03T08:37:04.991Z,99.90
2019-05-03T08:39:32.468Z,99.90
2019-05-03T08:42:04.759Z,99.90
2019-05-03T08:44:35.345Z,99.90
2019-05-03T08:47:05.248Z,99.90
2019-05-03T08:49:34.801Z,99.50
2019-05-03T08:52:05.241Z,98.60
2019-05-03T08:54:34.760Z,97.90
2019-05-03T08:57:02.721Z,96.80
2019-05-03T08:59:32.770Z,96.50
2019-05-03T09:02:03.566Z,97.40
2019-05-03T09:04:37.175Z,96.60
2019-05-03T09:06:59.697Z,96.80
2019-05-03T09:09:46.151Z,95.80
2019-05-03T09:12:14.586Z,95.10
2019-05-03T09:14:45.810Z,94.00
2019-05-03T09:17:12.117Z,93.40
2019-05-03T09:19:40.035Z,93.00
2019-05-03T09:22:07.887Z,92.70
2019-05-03T09:24:35.956Z,91.50
2019-05-03T09:27:05.072Z,90.70
2019-05-03T09:29:42.512Z,90.90
2019-05-03T09:32:05.083Z,91.70
2019-05-03T09:34:34.948Z,92.60
2019-05-03T09:37:04.597Z,92.60
2019-05-03T09:39:32.990Z,92.60
2019-05-03T09:42:00.791Z,91.50
2019-05-03T09:44:28.609Z,84.60
2019-05-03T09:46:56.582Z,77.60
2019-05-03T09:49:25.345Z,75.00
2019-05-03T09:51:54.801Z,73.30
2019-05-03T09:54:28.087Z,65.10
2019-05-03T09:56:58.626Z,57.10
2019-05-03T09:59:27.365Z,51.90
2019-05-03T10:01:55.211Z,53.20
2019-05-03T10:04:23.153Z,54.40
2019-05-03T10:06:50.972Z,56.60
2019-05-03T10:09:18.733Z,58.30
2019-05-03T10:11:46.681Z,58.70
2019-05-03T10:14:15.585Z,57.70
2019-05-03T10:16:50.905Z,57.70
2019-05-03T10:19:18.714Z,57.70
2019-05-03T10:21:48.044Z,55.80
2019-05-03T10:24:15.847Z,50.50
2019-05-03T10:26:45.549Z,44.50
2019-05-03T10:29:15.236Z,44.60
2019-05-03T10:31:50.567Z,47.40
2019-05-03T10:34:18.414Z,51.10
2019-05-03T10:36:46.252Z,51.90
2019-05-03T10:39:15.455Z,50.50
2019-05-03T10:41:45.218Z,50.70
2019-05-03T10:44:15.039Z,53.10
2019-05-03T10:46:45.226Z,54.60
2019-05-03T10:49:15.146Z,52.10
2019-05-03T10:51:47.598Z,49.10
2019-05-03T10:54:15.438Z,49.60
2019-05-03T10:56:53.116Z,48.40
2019-05-03T10:59:21.858Z,49.30
2019-05-03T11:02:14.362Z,48.90
2019-05-03T11:04:44.239Z,47.30
2019-05-03T11:07:14.752Z,45.00
2019-05-03T11:09:49.763Z,43.80
2019-05-03T11:12:14.769Z,43.20
2019-05-03T11:14:42.719Z,42.90
2019-05-03T11:17:10.641Z,46.90
2019-05-03T11:19:38.447Z,50.00
2019-05-03T11:22:06.332Z,52.60
2019-05-03T11:24:34.850Z,54.80
2019-05-03T11:29:35.563Z,55.80
2019-05-03T11:32:16.300Z,57.00
2019-05-03T11:35:04.457Z,55.30
2019-05-03T11:37:42.938Z,54.60
2019-05-03T11:40:10.926Z,52.50
2019-05-03T11:42:38.822Z,50.70
2019-05-03T11:45:06.901Z,48.40
2019-05-03T11:47:34.896Z,45.20
2019-05-03T11:50:04.026Z,43.20
2019-05-03T11:52:31.895Z,40.60
2019-05-03T11:54:59.642Z,40.70
2019-05-03T11:57:27.749Z,41.60
2019-05-03T11:59:55.688Z,42.80
2019-05-03T12:02:41.669Z,44.10
2019-05-03T12:05:16.591Z,42.30
2019-05-03T12:07:45.494Z,41.50
2019-05-03T12:10:30.084Z,41.70
2019-05-03T12:12:45.550Z,42.10
2019-05-03T12:15:15.135Z,41.40
2019-05-03T12:17:54.338Z,41.70
2019-05-03T12:20:18.094Z,44.10
2019-05-03T12:22:46.962Z,45.00
2019-05-03T12:25:16.730Z,45.70
2019-05-03T12:27:44.524Z,45.00
2019-05-03T12:30:15.217Z,45.40
2019-05-03T12:32:42.921Z,45.00
2019-05-03T12:35:10.747Z,46.00
2019-05-03T12:37:38.578Z,47.90
2019-05-03T12:40:10.981Z,49.10
2019-05-03T12:42:38.722Z,48.50
2019-05-03T12:45:06.807Z,48.00
2019-05-03T12:47:34.831Z,48.20
2019-05-03T12:50:05.102Z,49.50
2019-05-03T12:52:35.277Z,50.00
2019-05-03T12:55:04.462Z,50.80
2019-05-03T12:57:34.334Z,52.20
2019-05-03T13:00:25.098Z,53.60
2019-05-03T13:02:57.553Z,53.70
2019-05-03T13:05:25.763Z,54.20
2019-05-03T13:08:11.705Z,54.80
2019-05-03T13:10:39.516Z,54.90
2019-05-03T13:13:07.365Z,54.70
2019-05-03T13:15:35.274Z,54.50
2019-05-03T13:18:04.949Z,54.50
2019-05-03T13:20:32.890Z,53.80
2019-05-03T13:23:00.697Z,53.80
2019-05-03T13:25:29.268Z,54.10
2019-05-03T13:27:57.090Z,54.80
2019-05-03T13:30:25.141Z,55.40
2019-05-03T13:32:54.888Z,55.10
2019-05-03T13:35:22.856Z,55.20
2019-05-03T13:37:50.912Z,54.50
2019-05-03T13:40:18.789Z,53.50
2019-05-03T13:42:56.231Z,51.30
2019-05-03T13:45:16.345Z,47.80
2019-05-03T13:47:44.773Z,45.60
2019-05-03T13:50:14.974Z,44.70
2019-05-03T13:52:42.467Z,43.00
2019-05-03T13:55:10.233Z,44.80
2019-05-03T13:57:38.039Z,47.60
2019-05-03T14:00:06.172Z,49.50
2019-05-03T14:02:35.753Z,50.80
2019-05-03T14:05:04.936Z,52.90
2019-05-03T14:07:35.205Z,53.70
2019-05-03T14:10:02.732Z,54.70
2019-05-03T14:12:30.590Z,55.60
2019-05-03T14:14:58.370Z,56.20
2019-05-03T14:17:28.268Z,56.20
2019-05-03T14:20:21.743Z,56.10
2019-05-03T14:22:51.124Z,56.20
2019-05-03T14:25:18.942Z,56.50
2019-05-03T14:27:46.771Z,56.80
2019-05-03T14:30:15.159Z,56.50
2019-05-03T14:32:45.131Z,55.30
2019-05-03T14:35:14.422Z,55.30
2019-05-03T14:37:42.744Z,56.20
2019-05-03T14:40:10.616Z,55.50
2019-05-03T14:42:38.421Z,55.60
2019-05-03T14:45:06.743Z,56.40
2019-05-03T14:47:34.575Z,55.90
2019-05-03T14:50:02.469Z,55.80
2019-05-03T14:52:30.340Z,55.00
2019-05-03T14:55:06.653Z,55.20
2019-05-03T14:57:38.334Z,56.30
2019-05-03T15:00:17.318Z,54.60
2019-05-03T15:03:05.908Z,54.70
2019-05-03T15:05:34.768Z,55.10
2019-05-03T15:08:02.966Z,55.40
2019-05-03T15:10:30.841Z,55.50
2019-05-03T15:12:58.795Z,55.70
2019-05-03T15:15:28.815Z,56.70
2019-05-03T15:17:56.391Z,57.50
2019-05-03T15:20:25.532Z,58.90
2019-05-03T15:22:54.831Z,59.00
2019-05-03T15:25:24.930Z,59.20
2019-05-03T15:27:52.493Z,58.90
2019-05-03T15:30:20.773Z,59.20
2019-05-03T15:32:57.679Z,59.20
2019-05-03T15:35:18.659Z,59.40
2019-05-03T15:37:46.472Z,60.10
2019-05-03T15:40:15.703Z,60.80
2019-05-03T15:42:48.868Z,61.30
2019-05-03T15:45:39.061Z,62.00
2019-05-03T15:48:15.047Z,61.80
2019-05-03T15:50:44.626Z,61.20
2019-05-03T15:53:12.550Z,60.40
2019-05-03T15:55:40.374Z,59.40
2019-05-03T15:58:08.179Z,59.20
2019-05-03T16:00:35.988Z,59.60
2019-05-03T16:03:08.964Z,60.10
2019-05-03T16:05:35.415Z,60.60
2019-05-03T16:08:04.625Z,61.00
2019-05-03T16:10:32.573Z,60.70
2019-05-03T16:13:00.380Z,60.80
2019-05-03T16:15:28.160Z,60.70
2019-05-03T16:17:55.967Z,61.20
2019-05-03T16:20:25.142Z,61.60
2019-05-03T16:22:54.452Z,61.50
2019-05-03T16:25:24.915Z,61.50
2019-05-03T16:27:59.115Z,61.60
2019-05-03T16:30:52.143Z,61.60
2019-05-03T16:33:27.010Z,61.50
2019-05-03T16:35:49.635Z,61.80
2019-05-03T16:38:17.415Z,61.40
2019-05-03T16:40:45.286Z,61.00
2019-05-03T16:43:13.166Z,60.70
2019-05-03T16:45:41.024Z,61.00
2019-05-03T16:48:08.810Z,62.30
2019-05-03T16:50:36.596Z,62.50
2019-05-03T16:53:05.591Z,63.00
2019-05-03T16:55:35.147Z,63.90
2019-05-03T16:58:03.321Z,64.10
2019-05-03T17:00:31.142Z,64.50
2019-05-03T17:02:58.971Z,65.00
2019-05-03T17:06:01.294Z,65.40
2019-05-03T17:08:47.203Z,65.00
2019-05-03T17:11:17.316Z,65.10
2019-05-03T17:13:47.615Z,64.70
2019-05-03T17:16:14.835Z,64.80
2019-05-03T17:18:44.664Z,65.50
2019-05-03T17:21:14.598Z,65.60
2019-05-03T17:23:42.178Z,65.60
2019-05-03T17:26:10.000Z,65.60
2019-05-03T17:28:37.883Z,65.60
2019-05-03T17:31:05.693Z,65.70
2019-05-03T17:33:34.840Z,65.60
2019-05-03T17:36:02.790Z,65.60
2019-05-03T17:38:30.607Z,65.70
2019-05-03T17:41:25.590Z,65.70
2019-05-03T17:44:00.082Z,65.70
2019-05-03T17:46:27.899Z,65.50
2019-05-03T17:48:55.747Z,65.30
2019-05-03T17:51:45.582Z,65.50
2019-05-03T17:54:33.415Z,65.60
2019-05-03T17:57:07.992Z,66.10
2019-05-03T17:59:40.148Z,67.20
2019-05-03T18:02:45.573Z,66.90
2019-05-03T18:05:22.057Z,67.20
2019-05-03T18:08:27.511Z,67.50
2019-05-03T18:11:08.056Z,67.80
2019-05-03T18:13:35.889Z,68.20
2019-05-03T18:16:04.762Z,68.90
2019-05-03T18:18:32.760Z,69.50
2019-05-03T18:21:00.661Z,70.00
2019-05-03T18:23:28.508Z,70.10
2019-05-03T18:25:56.325Z,70.60
2019-05-03T18:28:25.012Z,70.80
2019-05-03T18:30:54.577Z,71.60
2019-05-03T18:33:24.579Z,72.00
2019-05-03T18:35:52.445Z,72.00
2019-05-03T18:38:22.268Z,72.60
2019-05-03T18:40:50.105Z,73.10
2019-05-03T18:43:25.958Z,73.00
2019-05-03T18:46:22.262Z,73.90
2019-05-03T18:48:50.468Z,74.30
2019-05-03T18:51:18.428Z,74.70
2019-05-03T18:53:46.301Z,75.00
2019-05-03T18:56:14.746Z,75.00
2019-05-03T18:58:44.700Z,75.50
2019-05-03T19:01:14.680Z,75.90
2019-05-03T19:03:45.118Z,76.10
2019-05-03T19:06:14.191Z,76.40
2019-05-03T19:09:00.220Z,76.30
2019-05-03T19:11:35.198Z,76.60
2019-05-03T19:14:05.513Z,78.40
2019-05-03T19:16:45.417Z,78.10
2019-05-03T19:19:13.734Z,77.90
2019-05-03T19:21:41.566Z,78.50
2019-05-03T19:24:09.570Z,78.70
2019-05-03T19:26:37.421Z,78.60
2019-05-03T19:29:05.295Z,79.40
2019-05-03T19:31:35.604Z,79.60
2019-05-03T19:34:03.667Z,80.20
2019-05-03T19:36:31.501Z,80.40
2019-05-03T19:38:59.676Z,80.90
2019-05-03T19:41:27.483Z,81.50
2019-05-03T19:43:55.361Z,82.00
2019-05-03T19:46:24.835Z,82.30
2019-05-03T19:48:54.585Z,82.30
2019-05-03T19:51:22.493Z,82.60
2019-05-03T19:53:55.087Z,83.00
2019-05-03T19:56:25.350Z,83.10
2019-05-03T19:58:57.285Z,83.80
2019-05-03T20:01:44.781Z,83.50
2019-05-03T20:04:35.086Z,83.60
2019-05-03T20:07:21.332Z,83.60
2019-05-03T20:09:49.224Z,83.70
2019-05-03T20:12:17.068Z,84.00
2019-05-03T20:14:45.115Z,84.10
2019-05-03T20:17:14.686Z,84.50
2019-05-03T20:19:42.679Z,84.90
2019-05-03T20:22:10.635Z,84.90
2019-05-03T20:24:38.439Z,84.90
2019-05-03T20:27:06.278Z,85.30
2019-05-03T20:29:34.521Z,85.10
2019-05-03T20:32:02.419Z,85.30
2019-05-03T20:34:30.238Z,85.00
2019-05-03T20:36:58.050Z,85.30
2019-05-03T20:39:25.853Z,85.50
2019-05-03T20:41:55.041Z,85.80
2019-05-03T20:44:45.251Z,86.20
2019-05-03T20:47:34.737Z,86.30
2019-05-03T20:50:15.889Z,86.30
2019-05-03T20:52:44.479Z,86.60
2019-05-03T20:55:15.351Z,86.70
2019-05-03T20:57:44.417Z,87.10
2019-05-03T21:00:17.234Z,87.80
2019-05-03T21:02:53.483Z,87.90
2019-05-03T21:05:26.705Z,88.30
2019-05-03T21:07:45.494Z,88.90
2019-05-03T21:10:15.665Z,89.60
2019-05-03T21:12:43.423Z,90.00
2019-05-03T21:15:19.370Z,90.20
2019-05-03T21:18:05.164Z,90.20
2019-05-03T21:20:49.857Z,90.20
2019-05-03T21:23:18.902Z,90.40
2019-05-03T21:26:12.584Z,90.70
2019-05-03T21:28:34.712Z,91.00
2019-05-03T21:31:02.527Z,91.20
2019-05-03T21:33:30.362Z,91.60
2019-05-03T21:35:58.171Z,92.10
2019-05-03T21:38:26.004Z,92.50
2019-05-03T21:40:54.682Z,92.80
2019-05-03T21:43:22.576Z,92.80
2019-05-03T21:45:55.975Z,92.80
2019-05-03T21:48:28.801Z,93.30
2019-05-03T21:50:56.592Z,93.70
2019-05-03T21:53:25.121Z,94.30
2019-05-03T21:55:53.025Z,94.80
2019-05-03T21:58:20.842Z,95.20
2019-05-03T22:00:54.739Z,95.60
2019-05-03T22:03:22.592Z,96.10
2019-05-03T22:05:54.986Z,96.60
2019-05-03T22:08:20.226Z,96.90
2019-05-03T22:10:48.008Z,97.40
2019-05-03T22:13:16.937Z,97.60
2019-05-03T22:15:52.893Z,98.10
2019-05-03T22:18:24.729Z,98.50
2019-05-03T22:21:15.355Z,99.00
2019-05-03T22:24:07.404Z,99.60
2019-05-03T22:26:53.191Z,99.90
2019-05-03T22:29:21.025Z,99.90
2019-05-03T22:31:48.830Z,99.90
2019-05-03T22:34:16.611Z,99.90
2019-05-03T22:36:44.564Z,99.90
2019-05-03T22:39:12.433Z,99.90
2019-05-03T22:41:40.231Z,99.90
2019-05-03T22:44:08.339Z,99.90
2019-05-03T22:46:36.372Z,99.90
2019-05-03T22:49:04.888Z,99.90
2019-05-03T22:51:34.509Z,99.90
2019-05-03T22:54:02.463Z,99.90
2019-05-03T22:56:30.776Z,99.90
2019-05-03T22:58:58.553Z,99.90
2019-05-03T23:01:26.377Z,99.90
2019-05-03T23:03:55.110Z,99.90
2019-05-03T23:06:25.050Z,99.90
2019-05-03T23:08:55.915Z,99.90
2019-05-03T23:11:24.416Z,99.90
2019-05-03T23:14:00.732Z,99.90
2019-05-03T23:16:30.831Z,99.90
2019-05-03T23:18:58.751Z,99.90
2019-05-03T23:21:29.072Z,99.90
2019-05-03T23:23:56.889Z,99.90
2019-05-03T23:26:25.474Z,99.90
2019-05-03T23:28:55.116Z,99.90
2019-05-03T23:31:25.000Z,99.90
2019-05-03T23:33:54.470Z,99.90
2019-05-03T23:36:32.860Z,99.90
2019-05-03T23:38:52.129Z,99.90
2019-05-03T23:41:19.963Z,99.90
2019-05-03T23:43:47.782Z,99.90
2019-05-03T23:46:17.521Z,99.90
2019-05-03T23:48:45.302Z,99.90
2019-05-03T23:51:32.711Z,99.90
2019-05-03T23:54:01.199Z,99.90
2019-05-03T23:56:28.982Z,99.90
2019-05-03T23:58:56.796Z,99.90
